sensor_id;sensor_type;location;lat;lon;timestamp;P1;durP1;ratioP1;P2;durP2;ratioP2
36663;SDS011;53333;51.976;20.144;2023-02-01T00:01:30;10.85;;;5.63;;
36663;SDS011;53333;51.976;20.144;2023-02-01T00:04:05;10.10;;;5.67;;
36663;SDS011;53333;51.976;20.144;2023-02-01T00:06:38;8.52;;;5.40;;
36663;SDS011;53333;51.976;20.144;2023-02-01T00:09:11;9.50;;;5.30;;
36663;SDS011;53333;51.976;20.144;2023-02-01T00:11:45;10.73;;;5.63;;
36663;SDS011;53333;51.976;20.144;2023-02-01T00:14:18;8.97;;;4.80;;
36663;SDS011;53333;51.976;20.144;2023-02-01T00:16:51;7.05;;;4.57;;
36663;SDS011;53333;51.976;20.144;2023-02-01T00:19:25;7.63;;;4.17;;
36663;SDS011;53333;51.976;20.144;2023-02-01T00:21:59;8.88;;;4.68;;
36663;SDS011;53333;51.976;20.144;2023-02-01T00:24:32;9.50;;;4.43;;
36663;SDS011;53333;51.976;20.144;2023-02-01T00:27:05;6.95;;;4.30;;
36663;SDS011;53333;51.976;20.144;2023-02-01T00:29:38;6.75;;;3.55;;
36663;SDS011;53333;51.976;20.144;2023-02-01T00:32:11;6.00;;;3.90;;
36663;SDS011;53333;51.976;20.144;2023-02-01T00:34:46;7.10;;;3.28;;
36663;SDS011;53333;51.976;20.144;2023-02-01T00:37:19;4.53;;;3.13;;
36663;SDS011;53333;51.976;20.144;2023-02-01T00:39:52;6.38;;;3.60;;
36663;SDS011;53333;51.976;20.144;2023-02-01T00:42:27;6.97;;;3.20;;
36663;SDS011;53333;51.976;20.144;2023-02-01T00:45:00;8.95;;;3.17;;
36663;SDS011;53333;51.976;20.144;2023-02-01T00:47:33;7.37;;;3.30;;
36663;SDS011;53333;51.976;20.144;2023-02-01T00:50:08;4.70;;;3.20;;
36663;SDS011;53333;51.976;20.144;2023-02-01T00:52:42;4.72;;;3.08;;
36663;SDS011;53333;51.976;20.144;2023-02-01T00:55:15;5.22;;;2.60;;
36663;SDS011;53333;51.976;20.144;2023-02-01T00:57:48;6.17;;;2.70;;
36663;SDS011;53333;51.976;20.144;2023-02-01T01:00:21;5.90;;;2.53;;
36663;SDS011;53333;51.976;20.144;2023-02-01T01:02:54;6.60;;;3.28;;
36663;SDS011;53333;51.976;20.144;2023-02-01T01:05:28;5.40;;;2.90;;
36663;SDS011;53333;51.976;20.144;2023-02-01T01:08:01;6.63;;;2.92;;
36663;SDS011;53333;51.976;20.144;2023-02-01T01:10:35;8.13;;;2.92;;
36663;SDS011;53333;51.976;20.144;2023-02-01T01:13:08;6.30;;;2.60;;
36663;SDS011;53333;51.976;20.144;2023-02-01T01:15:41;6.28;;;2.42;;
36663;SDS011;53333;51.976;20.144;2023-02-01T01:18:15;7.33;;;2.37;;
36663;SDS011;53333;51.976;20.144;2023-02-01T01:20:49;6.87;;;2.83;;
36663;SDS011;53333;51.976;20.144;2023-02-01T01:23:22;4.45;;;2.42;;
36663;SDS011;53333;51.976;20.144;2023-02-01T01:25:55;6.28;;;2.70;;
36663;SDS011;53333;51.976;20.144;2023-02-01T01:28:28;9.45;;;2.67;;
36663;SDS011;53333;51.976;20.144;2023-02-01T01:31:01;9.23;;;2.53;;
36663;SDS011;53333;51.976;20.144;2023-02-01T01:33:35;7.90;;;2.17;;
36663;SDS011;53333;51.976;20.144;2023-02-01T01:36:10;6.95;;;2.25;;
36663;SDS011;53333;51.976;20.144;2023-02-01T01:38:44;6.57;;;2.50;;
36663;SDS011;53333;51.976;20.144;2023-02-01T01:41:19;13.47;;;2.90;;
36663;SDS011;53333;51.976;20.144;2023-02-01T01:43:56;4.75;;;1.98;;
36663;SDS011;53333;51.976;20.144;2023-02-01T01:46:31;5.88;;;2.10;;
36663;SDS011;53333;51.976;20.144;2023-02-01T01:49:06;8.75;;;2.65;;
36663;SDS011;53333;51.976;20.144;2023-02-01T01:51:45;7.20;;;2.83;;
36663;SDS011;53333;51.976;20.144;2023-02-01T01:54:24;10.40;;;2.97;;
36663;SDS011;53333;51.976;20.144;2023-02-01T01:57:02;8.55;;;2.13;;
36663;SDS011;53333;51.976;20.144;2023-02-01T01:59:38;10.38;;;2.97;;
36663;SDS011;53333;51.976;20.144;2023-02-01T02:02:15;12.90;;;3.38;;
36663;SDS011;53333;51.976;20.144;2023-02-01T02:04:50;9.25;;;2.40;;
36663;SDS011;53333;51.976;20.144;2023-02-01T02:07:25;5.53;;;2.50;;
36663;SDS011;53333;51.976;20.144;2023-02-01T02:10:01;10.32;;;2.75;;
36663;SDS011;53333;51.976;20.144;2023-02-01T02:12:37;6.13;;;2.67;;
36663;SDS011;53333;51.976;20.144;2023-02-01T02:15:12;7.00;;;2.75;;
36663;SDS011;53333;51.976;20.144;2023-02-01T02:17:49;7.85;;;3.05;;
36663;SDS011;53333;51.976;20.144;2023-02-01T02:20:35;6.30;;;2.97;;
36663;SDS011;53333;51.976;20.144;2023-02-01T02:23:29;12.32;;;3.40;;
36663;SDS011;53333;51.976;20.144;2023-02-01T02:26:40;6.25;;;2.85;;
36663;SDS011;53333;51.976;20.144;2023-02-01T02:29:35;7.63;;;2.67;;
36663;SDS011;53333;51.976;20.144;2023-02-01T02:32:39;7.63;;;2.30;;
36663;SDS011;53333;51.976;20.144;2023-02-01T02:35:29;7.93;;;3.38;;
36663;SDS011;53333;51.976;20.144;2023-02-01T02:38:12;7.50;;;2.80;;
36663;SDS011;53333;51.976;20.144;2023-02-01T02:40:51;11.45;;;2.63;;
36663;SDS011;53333;51.976;20.144;2023-02-01T02:43:35;5.63;;;2.20;;
36663;SDS011;53333;51.976;20.144;2023-02-01T02:46:35;10.90;;;3.50;;
36663;SDS011;53333;51.976;20.144;2023-02-01T02:49:29;3.47;;;2.33;;
36663;SDS011;53333;51.976;20.144;2023-02-01T02:52:12;13.57;;;2.92;;
36663;SDS011;53333;51.976;20.144;2023-02-01T02:55:06;9.93;;;2.67;;
36663;SDS011;53333;51.976;20.144;2023-02-01T02:57:42;12.65;;;2.47;;
36663;SDS011;53333;51.976;20.144;2023-02-01T03:00:35;8.27;;;2.63;;
36663;SDS011;53333;51.976;20.144;2023-02-01T03:03:27;14.82;;;3.33;;
36663;SDS011;53333;51.976;20.144;2023-02-01T03:06:17;8.60;;;2.70;;
36663;SDS011;53333;51.976;20.144;2023-02-01T03:08:54;12.82;;;2.75;;
36663;SDS011;53333;51.976;20.144;2023-02-01T03:11:30;5.22;;;2.08;;
36663;SDS011;53333;51.976;20.144;2023-02-01T03:14:19;7.60;;;2.20;;
36663;SDS011;53333;51.976;20.144;2023-02-01T03:16:58;4.18;;;2.05;;
36663;SDS011;53333;51.976;20.144;2023-02-01T03:19:37;12.93;;;2.75;;
36663;SDS011;53333;51.976;20.144;2023-02-01T03:22:15;6.13;;;2.50;;
36663;SDS011;53333;51.976;20.144;2023-02-01T03:24:53;9.77;;;2.70;;
36663;SDS011;53333;51.976;20.144;2023-02-01T03:27:30;10.23;;;2.60;;
36663;SDS011;53333;51.976;20.144;2023-02-01T03:30:08;3.72;;;1.95;;
36663;SDS011;53333;51.976;20.144;2023-02-01T03:32:50;10.30;;;2.75;;
36663;SDS011;53333;51.976;20.144;2023-02-01T03:35:37;8.35;;;2.65;;
36663;SDS011;53333;51.976;20.144;2023-02-01T03:38:18;8.32;;;2.53;;
36663;SDS011;53333;51.976;20.144;2023-02-01T03:40:57;8.45;;;2.58;;
36663;SDS011;53333;51.976;20.144;2023-02-01T03:43:37;11.75;;;2.90;;
36663;SDS011;53333;51.976;20.144;2023-02-01T03:46:22;8.97;;;2.43;;
36663;SDS011;53333;51.976;20.144;2023-02-01T03:49:05;16.20;;;4.43;;
36663;SDS011;53333;51.976;20.144;2023-02-01T03:51:42;11.23;;;3.00;;
36663;SDS011;53333;51.976;20.144;2023-02-01T03:54:15;6.87;;;2.40;;
36663;SDS011;53333;51.976;20.144;2023-02-01T03:56:51;11.32;;;3.67;;
36663;SDS011;53333;51.976;20.144;2023-02-01T03:59:28;6.55;;;2.67;;
36663;SDS011;53333;51.976;20.144;2023-02-01T04:02:02;10.65;;;2.83;;
36663;SDS011;53333;51.976;20.144;2023-02-01T04:04:35;10.43;;;3.60;;
36663;SDS011;53333;51.976;20.144;2023-02-01T04:07:08;13.05;;;2.95;;
36663;SDS011;53333;51.976;20.144;2023-02-01T04:09:42;11.48;;;3.10;;
36663;SDS011;53333;51.976;20.144;2023-02-01T04:12:16;6.10;;;3.20;;
36663;SDS011;53333;51.976;20.144;2023-02-01T04:14:49;9.55;;;2.67;;
36663;SDS011;53333;51.976;20.144;2023-02-01T04:17:22;8.87;;;2.90;;
36663;SDS011;53333;51.976;20.144;2023-02-01T04:19:56;15.38;;;3.00;;
36663;SDS011;53333;51.976;20.144;2023-02-01T04:22:29;11.13;;;3.17;;
36663;SDS011;53333;51.976;20.144;2023-02-01T04:25:02;6.80;;;3.13;;
36663;SDS011;53333;51.976;20.144;2023-02-01T04:27:38;6.60;;;2.50;;
36663;SDS011;53333;51.976;20.144;2023-02-01T04:30:10;7.93;;;3.05;;
36663;SDS011;53333;51.976;20.144;2023-02-01T04:32:44;10.70;;;2.58;;
36663;SDS011;53333;51.976;20.144;2023-02-01T04:35:18;10.77;;;3.47;;
36663;SDS011;53333;51.976;20.144;2023-02-01T04:37:51;7.70;;;3.00;;
36663;SDS011;53333;51.976;20.144;2023-02-01T04:40:24;12.57;;;3.20;;
36663;SDS011;53333;51.976;20.144;2023-02-01T04:42:58;10.57;;;2.67;;
36663;SDS011;53333;51.976;20.144;2023-02-01T04:45:32;13.38;;;2.85;;
36663;SDS011;53333;51.976;20.144;2023-02-01T04:48:05;8.65;;;3.05;;
36663;SDS011;53333;51.976;20.144;2023-02-01T04:50:38;13.37;;;3.93;;
36663;SDS011;53333;51.976;20.144;2023-02-01T04:53:11;10.48;;;3.00;;
36663;SDS011;53333;51.976;20.144;2023-02-01T04:55:47;7.60;;;2.70;;
36663;SDS011;53333;51.976;20.144;2023-02-01T04:58:22;15.27;;;3.50;;
36663;SDS011;53333;51.976;20.144;2023-02-01T05:00:55;9.05;;;3.50;;
36663;SDS011;53333;51.976;20.144;2023-02-01T05:03:28;13.15;;;3.70;;
36663;SDS011;53333;51.976;20.144;2023-02-01T05:06:01;13.10;;;3.27;;
36663;SDS011;53333;51.976;20.144;2023-02-01T05:11:09;12.97;;;2.83;;
36663;SDS011;53333;51.976;20.144;2023-02-01T05:14:03;10.20;;;3.20;;
36663;SDS011;53333;51.976;20.144;2023-02-01T05:16:35;9.13;;;3.03;;
36663;SDS011;53333;51.976;20.144;2023-02-01T05:19:08;16.80;;;2.70;;
36663;SDS011;53333;51.976;20.144;2023-02-01T05:21:41;11.80;;;2.90;;
36663;SDS011;53333;51.976;20.144;2023-02-01T05:24:14;8.77;;;2.80;;
36663;SDS011;53333;51.976;20.144;2023-02-01T05:26:51;10.68;;;2.72;;
36663;SDS011;53333;51.976;20.144;2023-02-01T05:29:25;4.77;;;2.60;;
36663;SDS011;53333;51.976;20.144;2023-02-01T05:31:58;7.45;;;3.13;;
36663;SDS011;53333;51.976;20.144;2023-02-01T05:34:51;11.90;;;3.72;;
36663;SDS011;53333;51.976;20.144;2023-02-01T05:37:24;12.68;;;5.28;;
36663;SDS011;53333;51.976;20.144;2023-02-01T05:39:57;11.10;;;3.25;;
36663;SDS011;53333;51.976;20.144;2023-02-01T05:42:30;11.03;;;3.07;;
36663;SDS011;53333;51.976;20.144;2023-02-01T05:45:08;13.85;;;4.15;;
36663;SDS011;53333;51.976;20.144;2023-02-01T05:47:41;17.00;;;3.30;;
36663;SDS011;53333;51.976;20.144;2023-02-01T05:50:15;10.75;;;3.83;;
36663;SDS011;53333;51.976;20.144;2023-02-01T05:52:48;10.27;;;2.67;;
36663;SDS011;53333;51.976;20.144;2023-02-01T05:55:21;11.70;;;3.80;;
36663;SDS011;53333;51.976;20.144;2023-02-01T05:57:54;8.60;;;2.83;;
36663;SDS011;53333;51.976;20.144;2023-02-01T06:00:28;13.13;;;4.13;;
36663;SDS011;53333;51.976;20.144;2023-02-01T06:03:01;11.73;;;3.58;;
36663;SDS011;53333;51.976;20.144;2023-02-01T06:05:35;8.95;;;3.17;;
36663;SDS011;53333;51.976;20.144;2023-02-01T06:08:08;7.03;;;3.25;;
36663;SDS011;53333;51.976;20.144;2023-02-01T06:10:41;10.90;;;2.72;;
36663;SDS011;53333;51.976;20.144;2023-02-01T06:13:14;15.80;;;3.33;;
36663;SDS011;53333;51.976;20.144;2023-02-01T06:15:48;14.37;;;3.20;;
36663;SDS011;53333;51.976;20.144;2023-02-01T06:18:22;15.55;;;3.67;;
36663;SDS011;53333;51.976;20.144;2023-02-01T06:20:56;10.03;;;3.33;;
36663;SDS011;53333;51.976;20.144;2023-02-01T06:23:31;11.30;;;3.53;;
36663;SDS011;53333;51.976;20.144;2023-02-01T06:26:05;14.67;;;4.53;;
36663;SDS011;53333;51.976;20.144;2023-02-01T06:28:40;10.98;;;3.45;;
36663;SDS011;53333;51.976;20.144;2023-02-01T06:31:14;9.88;;;3.42;;
36663;SDS011;53333;51.976;20.144;2023-02-01T06:33:47;15.30;;;4.57;;
36663;SDS011;53333;51.976;20.144;2023-02-01T06:36:20;16.75;;;4.20;;
36663;SDS011;53333;51.976;20.144;2023-02-01T06:38:53;15.43;;;4.75;;
36663;SDS011;53333;51.976;20.144;2023-02-01T06:41:30;14.00;;;5.03;;
36663;SDS011;53333;51.976;20.144;2023-02-01T06:44:06;14.70;;;3.95;;
36663;SDS011;53333;51.976;20.144;2023-02-01T06:46:40;6.88;;;3.65;;
36663;SDS011;53333;51.976;20.144;2023-02-01T06:49:13;12.75;;;3.78;;
36663;SDS011;53333;51.976;20.144;2023-02-01T06:51:46;15.90;;;5.30;;
36663;SDS011;53333;51.976;20.144;2023-02-01T06:54:19;17.60;;;4.40;;
36663;SDS011;53333;51.976;20.144;2023-02-01T06:56:52;12.95;;;4.78;;
36663;SDS011;53333;51.976;20.144;2023-02-01T06:59:25;17.60;;;5.20;;
36663;SDS011;53333;51.976;20.144;2023-02-01T07:02:00;9.18;;;3.85;;
36663;SDS011;53333;51.976;20.144;2023-02-01T07:04:33;11.25;;;5.00;;
36663;SDS011;53333;51.976;20.144;2023-02-01T07:07:06;13.48;;;4.70;;
36663;SDS011;53333;51.976;20.144;2023-02-01T07:09:39;19.48;;;5.93;;
36663;SDS011;53333;51.976;20.144;2023-02-01T07:12:12;10.95;;;3.95;;
36663;SDS011;53333;51.976;20.144;2023-02-01T07:14:45;8.80;;;4.38;;
36663;SDS011;53333;51.976;20.144;2023-02-01T07:17:19;11.70;;;4.53;;
36663;SDS011;53333;51.976;20.144;2023-02-01T07:19:55;12.20;;;3.65;;
36663;SDS011;53333;51.976;20.144;2023-02-01T07:22:30;14.85;;;3.22;;
36663;SDS011;53333;51.976;20.144;2023-02-01T07:25:03;11.18;;;4.07;;
36663;SDS011;53333;51.976;20.144;2023-02-01T07:30:10;11.27;;;3.28;;
36663;SDS011;53333;51.976;20.144;2023-02-01T07:32:45;15.90;;;4.85;;
36663;SDS011;53333;51.976;20.144;2023-02-01T07:35:18;12.55;;;4.35;;
36663;SDS011;53333;51.976;20.144;2023-02-01T07:37:51;8.10;;;3.05;;
36663;SDS011;53333;51.976;20.144;2023-02-01T07:40:24;10.90;;;3.17;;
36663;SDS011;53333;51.976;20.144;2023-02-01T07:43:00;12.00;;;4.78;;
36663;SDS011;53333;51.976;20.144;2023-02-01T07:45:33;12.25;;;4.05;;
36663;SDS011;53333;51.976;20.144;2023-02-01T07:48:08;8.68;;;3.35;;
36663;SDS011;53333;51.976;20.144;2023-02-01T07:50:41;11.73;;;3.70;;
36663;SDS011;53333;51.976;20.144;2023-02-01T07:53:15;9.98;;;3.10;;
36663;SDS011;53333;51.976;20.144;2023-02-01T07:55:47;9.77;;;3.77;;
36663;SDS011;53333;51.976;20.144;2023-02-01T07:58:21;14.00;;;4.72;;
36663;SDS011;53333;51.976;20.144;2023-02-01T08:00:54;13.27;;;3.33;;
36663;SDS011;53333;51.976;20.144;2023-02-01T08:03:46;9.23;;;3.80;;
36663;SDS011;53333;51.976;20.144;2023-02-01T08:06:20;22.05;;;4.95;;
36663;SDS011;53333;51.976;20.144;2023-02-01T08:08:54;14.10;;;3.75;;
36663;SDS011;53333;51.976;20.144;2023-02-01T08:11:27;8.93;;;3.67;;
36663;SDS011;53333;51.976;20.144;2023-02-01T08:14:01;13.13;;;3.60;;
36663;SDS011;53333;51.976;20.144;2023-02-01T08:16:34;8.63;;;3.50;;
36663;SDS011;53333;51.976;20.144;2023-02-01T08:19:12;13.85;;;3.83;;
36663;SDS011;53333;51.976;20.144;2023-02-01T08:21:45;11.88;;;4.97;;
36663;SDS011;53333;51.976;20.144;2023-02-01T08:24:20;14.23;;;3.58;;
36663;SDS011;53333;51.976;20.144;2023-02-01T08:26:53;11.30;;;5.25;;
36663;SDS011;53333;51.976;20.144;2023-02-01T08:29:26;15.38;;;3.65;;
36663;SDS011;53333;51.976;20.144;2023-02-01T08:32:00;14.57;;;5.03;;
36663;SDS011;53333;51.976;20.144;2023-02-01T08:34:34;11.85;;;2.80;;
36663;SDS011;53333;51.976;20.144;2023-02-01T08:37:08;12.25;;;3.92;;
36663;SDS011;53333;51.976;20.144;2023-02-01T08:39:41;13.73;;;4.65;;
36663;SDS011;53333;51.976;20.144;2023-02-01T08:42:18;16.92;;;4.25;;
36663;SDS011;53333;51.976;20.144;2023-02-01T08:45:09;10.10;;;3.92;;
36663;SDS011;53333;51.976;20.144;2023-02-01T08:47:43;18.10;;;4.40;;
36663;SDS011;53333;51.976;20.144;2023-02-01T08:50:18;17.07;;;4.60;;
36663;SDS011;53333;51.976;20.144;2023-02-01T08:52:52;12.25;;;3.55;;
36663;SDS011;53333;51.976;20.144;2023-02-01T08:55:25;15.93;;;4.07;;
36663;SDS011;53333;51.976;20.144;2023-02-01T08:57:59;18.65;;;4.32;;
36663;SDS011;53333;51.976;20.144;2023-02-01T09:00:32;13.43;;;4.30;;
36663;SDS011;53333;51.976;20.144;2023-02-01T09:03:05;20.10;;;5.60;;
36663;SDS011;53333;51.976;20.144;2023-02-01T09:05:40;12.15;;;4.85;;
36663;SDS011;53333;51.976;20.144;2023-02-01T09:08:20;10.25;;;4.20;;
36663;SDS011;53333;51.976;20.144;2023-02-01T09:10:53;18.13;;;4.80;;
36663;SDS011;53333;51.976;20.144;2023-02-01T09:13:26;16.92;;;4.32;;
36663;SDS011;53333;51.976;20.144;2023-02-01T09:15:59;8.30;;;3.42;;
36663;SDS011;53333;51.976;20.144;2023-02-01T09:18:32;15.75;;;5.03;;
36663;SDS011;53333;51.976;20.144;2023-02-01T09:21:07;9.68;;;3.75;;
36663;SDS011;53333;51.976;20.144;2023-02-01T09:23:40;11.90;;;3.67;;
36663;SDS011;53333;51.976;20.144;2023-02-01T09:26:14;12.27;;;5.10;;
36663;SDS011;53333;51.976;20.144;2023-02-01T09:28:50;17.77;;;4.97;;
36663;SDS011;53333;51.976;20.144;2023-02-01T09:31:23;10.83;;;4.00;;
36663;SDS011;53333;51.976;20.144;2023-02-01T09:33:56;11.57;;;5.50;;
36663;SDS011;53333;51.976;20.144;2023-02-01T09:36:31;15.73;;;4.60;;
36663;SDS011;53333;51.976;20.144;2023-02-01T09:39:07;14.05;;;4.18;;
36663;SDS011;53333;51.976;20.144;2023-02-01T09:41:42;8.17;;;3.70;;
36663;SDS011;53333;51.976;20.144;2023-02-01T09:44:34;23.10;;;6.20;;
36663;SDS011;53333;51.976;20.144;2023-02-01T09:49:56;13.10;;;4.10;;
36663;SDS011;53333;51.976;20.144;2023-02-01T09:52:36;15.35;;;4.40;;
36663;SDS011;53333;51.976;20.144;2023-02-01T09:55:16;14.32;;;5.13;;
36663;SDS011;53333;51.976;20.144;2023-02-01T09:57:53;9.88;;;4.35;;
36663;SDS011;53333;51.976;20.144;2023-02-01T10:00:34;16.45;;;5.22;;
36663;SDS011;53333;51.976;20.144;2023-02-01T10:03:10;12.52;;;5.50;;
36663;SDS011;53333;51.976;20.144;2023-02-01T10:05:51;13.73;;;4.78;;
36663;SDS011;53333;51.976;20.144;2023-02-01T10:08:37;9.30;;;4.22;;
36663;SDS011;53333;51.976;20.144;2023-02-01T10:11:26;15.45;;;4.22;;
36663;SDS011;53333;51.976;20.144;2023-02-01T10:14:34;13.13;;;4.20;;
36663;SDS011;53333;51.976;20.144;2023-02-01T10:17:20;16.20;;;4.65;;
36663;SDS011;53333;51.976;20.144;2023-02-01T10:20:03;9.77;;;3.97;;
36663;SDS011;53333;51.976;20.144;2023-02-01T10:22:45;15.43;;;4.63;;
36663;SDS011;53333;51.976;20.144;2023-02-01T10:25:46;15.93;;;4.68;;
36663;SDS011;53333;51.976;20.144;2023-02-01T10:28:27;11.00;;;4.38;;
36663;SDS011;53333;51.976;20.144;2023-02-01T10:31:00;15.30;;;5.13;;
36663;SDS011;53333;51.976;20.144;2023-02-01T10:33:35;15.73;;;4.30;;
36663;SDS011;53333;51.976;20.144;2023-02-01T10:36:14;19.98;;;4.70;;
36663;SDS011;53333;51.976;20.144;2023-02-01T10:38:49;9.57;;;4.93;;
36663;SDS011;53333;51.976;20.144;2023-02-01T10:41:24;9.93;;;4.22;;
36663;SDS011;53333;51.976;20.144;2023-02-01T10:44:04;12.90;;;4.32;;
36663;SDS011;53333;51.976;20.144;2023-02-01T10:46:40;15.65;;;5.30;;
36663;SDS011;53333;51.976;20.144;2023-02-01T10:49:15;15.82;;;4.82;;
36663;SDS011;53333;51.976;20.144;2023-02-01T10:51:52;13.50;;;4.93;;
36663;SDS011;53333;51.976;20.144;2023-02-01T10:54:34;10.52;;;5.32;;
36663;SDS011;53333;51.976;20.144;2023-02-01T10:57:19;12.80;;;5.10;;
36663;SDS011;53333;51.976;20.144;2023-02-01T10:59:53;12.73;;;4.63;;
36663;SDS011;53333;51.976;20.144;2023-02-01T11:02:27;20.77;;;6.03;;
36663;SDS011;53333;51.976;20.144;2023-02-01T11:05:05;20.70;;;5.35;;
36663;SDS011;53333;51.976;20.144;2023-02-01T11:07:46;18.17;;;5.47;;
36663;SDS011;53333;51.976;20.144;2023-02-01T11:10:37;18.25;;;5.72;;
36663;SDS011;53333;51.976;20.144;2023-02-01T11:13:15;14.57;;;4.57;;
36663;SDS011;53333;51.976;20.144;2023-02-01T11:15:55;11.07;;;4.50;;
36663;SDS011;53333;51.976;20.144;2023-02-01T11:18:29;18.42;;;7.45;;
36663;SDS011;53333;51.976;20.144;2023-02-01T11:21:04;20.85;;;7.25;;
36663;SDS011;53333;51.976;20.144;2023-02-01T11:23:39;15.40;;;6.78;;
36663;SDS011;53333;51.976;20.144;2023-02-01T11:26:19;17.02;;;5.72;;
36663;SDS011;53333;51.976;20.144;2023-02-01T11:28:58;18.08;;;5.30;;
36663;SDS011;53333;51.976;20.144;2023-02-01T11:31:34;14.48;;;5.70;;
36663;SDS011;53333;51.976;20.144;2023-02-01T11:34:08;16.08;;;5.05;;
36663;SDS011;53333;51.976;20.144;2023-02-01T11:36:46;13.60;;;5.07;;
36663;SDS011;53333;51.976;20.144;2023-02-01T11:39:24;17.63;;;6.28;;
36663;SDS011;53333;51.976;20.144;2023-02-01T11:42:00;15.77;;;5.50;;
36663;SDS011;53333;51.976;20.144;2023-02-01T11:44:38;24.27;;;6.05;;
36663;SDS011;53333;51.976;20.144;2023-02-01T11:47:18;21.45;;;8.15;;
36663;SDS011;53333;51.976;20.144;2023-02-01T11:49:52;18.88;;;5.25;;
36663;SDS011;53333;51.976;20.144;2023-02-01T11:52:35;14.82;;;5.50;;
36663;SDS011;53333;51.976;20.144;2023-02-01T11:55:38;24.10;;;6.72;;
36663;SDS011;53333;51.976;20.144;2023-02-01T11:58:26;13.77;;;5.40;;
36663;SDS011;53333;51.976;20.144;2023-02-01T12:01:16;12.07;;;4.28;;
36663;SDS011;53333;51.976;20.144;2023-02-01T12:07:27;18.23;;;5.22;;
36663;SDS011;53333;51.976;20.144;2023-02-01T12:10:17;13.88;;;5.80;;
36663;SDS011;53333;51.976;20.144;2023-02-01T12:13:00;15.65;;;5.25;;
36663;SDS011;53333;51.976;20.144;2023-02-01T12:15:51;17.55;;;6.20;;
36663;SDS011;53333;51.976;20.144;2023-02-01T12:18:44;15.57;;;5.57;;
36663;SDS011;53333;51.976;20.144;2023-02-01T12:21:37;20.20;;;6.28;;
36663;SDS011;53333;51.976;20.144;2023-02-01T12:27:41;17.95;;;5.57;;
36663;SDS011;53333;51.976;20.144;2023-02-01T12:30:31;15.80;;;6.20;;
36663;SDS011;53333;51.976;20.144;2023-02-01T12:33:17;16.20;;;6.03;;
36663;SDS011;53333;51.976;20.144;2023-02-01T12:36:05;18.08;;;7.47;;
36663;SDS011;53333;51.976;20.144;2023-02-01T12:38:48;16.02;;;5.47;;
36663;SDS011;53333;51.976;20.144;2023-02-01T12:41:33;20.42;;;6.55;;
36663;SDS011;53333;51.976;20.144;2023-02-01T12:44:24;16.50;;;6.70;;
36663;SDS011;53333;51.976;20.144;2023-02-01T12:47:14;18.90;;;6.85;;
36663;SDS011;53333;51.976;20.144;2023-02-01T12:49:54;16.35;;;6.00;;
36663;SDS011;53333;51.976;20.144;2023-02-01T12:52:34;13.48;;;5.47;;
36663;SDS011;53333;51.976;20.144;2023-02-01T12:55:15;10.95;;;4.80;;
36663;SDS011;53333;51.976;20.144;2023-02-01T12:57:55;12.57;;;4.95;;
36663;SDS011;53333;51.976;20.144;2023-02-01T13:00:34;13.57;;;4.13;;
36663;SDS011;53333;51.976;20.144;2023-02-01T13:03:14;9.95;;;3.88;;
36663;SDS011;53333;51.976;20.144;2023-02-01T13:05:55;5.95;;;3.28;;
36663;SDS011;53333;51.976;20.144;2023-02-01T13:08:38;9.77;;;3.42;;
36663;SDS011;53333;51.976;20.144;2023-02-01T13:11:17;9.30;;;4.43;;
36663;SDS011;53333;51.976;20.144;2023-02-01T13:13:56;12.82;;;4.78;;
36663;SDS011;53333;51.976;20.144;2023-02-01T13:16:35;11.10;;;5.47;;
36663;SDS011;53333;51.976;20.144;2023-02-01T13:19:13;7.47;;;4.20;;
36663;SDS011;53333;51.976;20.144;2023-02-01T13:21:51;6.68;;;2.90;;
36663;SDS011;53333;51.976;20.144;2023-02-01T13:24:31;7.13;;;4.00;;
36663;SDS011;53333;51.976;20.144;2023-02-01T13:27:10;8.73;;;3.22;;
36663;SDS011;53333;51.976;20.144;2023-02-01T13:29:46;7.72;;;3.10;;
36663;SDS011;53333;51.976;20.144;2023-02-01T13:32:47;8.45;;;3.53;;
36663;SDS011;53333;51.976;20.144;2023-02-01T13:36:10;9.50;;;4.00;;
36663;SDS011;53333;51.976;20.144;2023-02-01T13:42:15;14.05;;;4.07;;
36663;SDS011;53333;51.976;20.144;2023-02-01T13:44:54;12.02;;;4.40;;
36663;SDS011;53333;51.976;20.144;2023-02-01T13:47:31;10.73;;;4.53;;
36663;SDS011;53333;51.976;20.144;2023-02-01T13:50:11;11.25;;;4.50;;
36663;SDS011;53333;51.976;20.144;2023-02-01T13:52:52;6.53;;;4.50;;
36663;SDS011;53333;51.976;20.144;2023-02-01T13:55:30;6.50;;;4.65;;
36663;SDS011;53333;51.976;20.144;2023-02-01T13:58:11;10.68;;;5.35;;
36663;SDS011;53333;51.976;20.144;2023-02-01T14:00:48;12.15;;;5.05;;
36663;SDS011;53333;51.976;20.144;2023-02-01T14:03:22;15.52;;;5.97;;
36663;SDS011;53333;51.976;20.144;2023-02-01T14:06:17;10.57;;;5.80;;
36663;SDS011;53333;51.976;20.144;2023-02-01T14:09:17;10.27;;;6.43;;
36663;SDS011;53333;51.976;20.144;2023-02-01T14:15:21;12.55;;;5.18;;
36663;SDS011;53333;51.976;20.144;2023-02-01T14:17:57;13.73;;;5.25;;
36663;SDS011;53333;51.976;20.144;2023-02-01T14:26:20;14.82;;;6.57;;
36663;SDS011;53333;51.976;20.144;2023-02-01T14:28:58;13.60;;;5.25;;
36663;SDS011;53333;51.976;20.144;2023-02-01T14:31:37;17.33;;;5.97;;
36663;SDS011;53333;51.976;20.144;2023-02-01T14:34:29;17.65;;;5.65;;
36663;SDS011;53333;51.976;20.144;2023-02-01T14:37:07;11.90;;;5.90;;
36663;SDS011;53333;51.976;20.144;2023-02-01T14:42:38;19.27;;;6.75;;
36663;SDS011;53333;51.976;20.144;2023-02-01T14:48:45;10.95;;;5.78;;
36663;SDS011;53333;51.976;20.144;2023-02-01T14:51:19;11.02;;;6.32;;
36663;SDS011;53333;51.976;20.144;2023-02-01T14:53:53;11.85;;;5.95;;
36663;SDS011;53333;51.976;20.144;2023-02-01T14:56:27;10.55;;;6.40;;
36663;SDS011;53333;51.976;20.144;2023-02-01T14:59:00;9.23;;;5.78;;
36663;SDS011;53333;51.976;20.144;2023-02-01T15:01:46;10.18;;;6.00;;
36663;SDS011;53333;51.976;20.144;2023-02-01T15:04:25;14.13;;;6.70;;
36663;SDS011;53333;51.976;20.144;2023-02-01T15:07:05;9.93;;;6.18;;
36663;SDS011;53333;51.976;20.144;2023-02-01T15:09:44;13.32;;;6.18;;
36663;SDS011;53333;51.976;20.144;2023-02-01T15:12:23;13.15;;;6.90;;
36663;SDS011;53333;51.976;20.144;2023-02-01T15:15:12;11.88;;;7.05;;
36663;SDS011;53333;51.976;20.144;2023-02-01T15:17:51;15.40;;;7.28;;
36663;SDS011;53333;51.976;20.144;2023-02-01T15:20:27;9.95;;;6.60;;
36663;SDS011;53333;51.976;20.144;2023-02-01T15:23:05;14.10;;;6.88;;
36663;SDS011;53333;51.976;20.144;2023-02-01T15:25:46;11.55;;;6.53;;
36663;SDS011;53333;51.976;20.144;2023-02-01T15:28:19;10.93;;;7.13;;
36663;SDS011;53333;51.976;20.144;2023-02-01T15:30:55;17.65;;;6.82;;
36663;SDS011;53333;51.976;20.144;2023-02-01T15:33:30;12.85;;;7.03;;
36663;SDS011;53333;51.976;20.144;2023-02-01T15:36:09;13.73;;;7.07;;
36663;SDS011;53333;51.976;20.144;2023-02-01T15:38:44;13.52;;;6.85;;
36663;SDS011;53333;51.976;20.144;2023-02-01T15:41:18;13.38;;;7.63;;
36663;SDS011;53333;51.976;20.144;2023-02-01T15:44:04;20.95;;;9.20;;
36663;SDS011;53333;51.976;20.144;2023-02-01T15:46:47;14.10;;;8.27;;
36663;SDS011;53333;51.976;20.144;2023-02-01T15:49:26;22.60;;;10.18;;
36663;SDS011;53333;51.976;20.144;2023-02-01T15:52:03;19.00;;;9.32;;
36663;SDS011;53333;51.976;20.144;2023-02-01T15:54:51;17.80;;;9.18;;
36663;SDS011;53333;51.976;20.144;2023-02-01T15:57:27;21.20;;;8.85;;
36663;SDS011;53333;51.976;20.144;2023-02-01T16:00:03;17.63;;;9.63;;
36663;SDS011;53333;51.976;20.144;2023-02-01T16:02:53;23.23;;;10.75;;